createdAt,value
2018-10-05T00:02:06.299Z,101273.16
2018-10-05T00:04:33.819Z,101275.82
2018-10-05T00:07:01.236Z,101280.14
2018-10-05T00:09:28.723Z,101273.80
2018-10-05T00:11:56.149Z,101269.83
2018-10-05T00:14:23.574Z,101271.59
2018-10-05T00:16:50.999Z,101267.38
2018-10-05T00:19:18.486Z,101265.56
2018-10-05T00:21:45.915Z,101262.89
2018-10-05T00:24:13.338Z,101257.50
2018-10-05T00:26:40.807Z,101257.69
2018-10-05T00:29:08.219Z,101255.60
2018-10-05T00:31:35.649Z,101258.88
2018-10-05T00:34:03.060Z,101257.56
2018-10-05T00:36:30.551Z,101258.70
2018-10-05T00:38:57.975Z,101260.22
2018-10-05T00:41:25.390Z,101265.57
2018-10-05T00:43:52.816Z,101250.60
2018-10-05T00:46:20.238Z,101255.14
2018-10-05T00:48:47.658Z,101252.56
2018-10-05T00:51:15.099Z,101246.27
2018-10-05T00:53:42.521Z,101245.20
2018-10-05T00:56:09.944Z,101240.98
2018-10-05T00:58:37.359Z,101239.94
2018-10-05T01:01:04.778Z,101238.36
2018-10-05T01:03:32.211Z,101237.22
2018-10-05T01:05:59.906Z,101227.91
2018-10-05T01:08:27.513Z,101225.59
2018-10-05T01:10:54.939Z,101223.69
2018-10-05T01:13:22.365Z,101227.60
2018-10-05T01:15:49.799Z,101224.08
2018-10-05T01:18:18.939Z,101234.21
2018-10-05T01:20:46.359Z,101233.00
2018-10-05T01:23:13.771Z,101237.07
2018-10-05T01:25:41.195Z,101238.98
2018-10-05T01:28:08.611Z,101229.95
2018-10-05T01:30:36.023Z,101236.08
2018-10-05T01:33:03.447Z,101229.02
2018-10-05T01:35:30.867Z,101224.72
2018-10-05T01:37:58.327Z,101225.80
2018-10-05T01:40:25.750Z,101218.37
2018-10-05T01:42:53.164Z,101217.88
2018-10-05T01:45:20.593Z,101213.30
2018-10-05T01:47:47.994Z,101217.42
2018-10-05T01:50:15.394Z,101213.50
2018-10-05T01:52:42.809Z,101208.61
2018-10-05T01:55:10.218Z,101205.00
2018-10-05T01:57:37.638Z,101202.70
2018-10-05T02:00:05.067Z,101213.08
2018-10-05T02:02:32.499Z,101202.73
2018-10-05T02:04:59.943Z,101201.05
2018-10-05T02:07:27.363Z,101194.73
2018-10-05T02:09:54.780Z,101194.94
2018-10-05T02:12:22.191Z,101193.41
2018-10-05T02:14:49.603Z,101194.98
2018-10-05T02:17:17.026Z,101200.01
2018-10-05T02:19:44.439Z,101193.67
2018-10-05T02:22:11.864Z,101195.68
2018-10-05T02:24:39.281Z,101191.20
2018-10-05T02:27:06.703Z,101190.43
2018-10-05T02:29:34.132Z,101190.58
2018-10-05T02:32:01.548Z,101187.16
2018-10-05T02:34:28.966Z,101197.97
2018-10-05T02:36:56.380Z,101188.53
2018-10-05T02:39:23.794Z,101178.56
2018-10-05T02:41:51.396Z,101179.61
2018-10-05T02:44:18.627Z,101171.03
2018-10-05T02:46:46.048Z,101171.19
2018-10-05T02:49:13.470Z,101176.69
2018-10-05T02:51:40.875Z,101169.20
2018-10-05T02:54:08.290Z,101169.17
2018-10-05T02:56:35.719Z,101166.63
2018-10-05T02:59:03.138Z,101162.12
2018-10-05T03:01:30.542Z,101160.03
2018-10-05T03:03:57.963Z,101159.34
2018-10-05T03:06:25.382Z,101165.98
2018-10-05T03:08:52.799Z,101166.39
2018-10-05T03:11:20.219Z,101164.53
2018-10-05T03:13:47.739Z,101169.56
2018-10-05T03:16:15.197Z,101172.52
2018-10-05T03:18:42.656Z,101169.70
2018-10-05T03:21:10.143Z,101174.81
2018-10-05T03:23:37.642Z,101168.34
2018-10-05T03:26:05.070Z,101173.71
2018-10-05T03:28:32.480Z,101172.11
2018-10-05T03:30:59.886Z,101167.73
2018-10-05T03:33:27.397Z,101156.72
2018-10-05T03:35:54.811Z,101155.50
2018-10-05T03:38:22.239Z,101155.84
2018-10-05T03:40:49.668Z,101162.45
2018-10-05T03:43:17.091Z,101164.39
2018-10-05T03:45:44.504Z,101159.76
2018-10-05T03:48:11.942Z,101162.16
2018-10-05T03:50:39.371Z,101158.62
2018-10-05T03:53:06.783Z,101161.49
2018-10-05T03:55:34.208Z,101151.70
2018-10-05T03:58:01.653Z,101159.27
2018-10-05T04:00:29.127Z,101159.13
2018-10-05T04:02:56.516Z,101161.86
2018-10-05T04:05:23.943Z,101164.83
2018-10-05T04:07:51.376Z,101156.95
2018-10-05T04:10:18.787Z,101152.50
2018-10-05T04:12:46.200Z,101159.77
2018-10-05T04:15:13.611Z,101159.71
2018-10-05T04:17:41.031Z,101161.56
2018-10-05T04:20:08.451Z,101154.33
2018-10-05T04:25:09.631Z,101153.45
2018-10-05T04:27:37.061Z,101155.56
2018-10-05T04:30:04.491Z,101151.40
2018-10-05T04:32:31.912Z,101155.27
2018-10-05T04:34:59.377Z,101156.61
2018-10-05T04:37:26.829Z,101152.69
2018-10-05T04:39:54.269Z,101158.94
2018-10-05T04:42:21.686Z,101162.43
2018-10-05T04:44:49.268Z,101161.16
2018-10-05T04:47:16.702Z,101156.64
2018-10-05T04:49:44.171Z,101157.69
2018-10-05T04:52:11.531Z,101157.22
2018-10-05T04:54:38.943Z,101159.53
2018-10-05T04:57:06.383Z,101156.31
2018-10-05T04:59:33.911Z,101153.45
2018-10-05T05:02:01.476Z,101157.34
2018-10-05T05:04:28.888Z,101159.63
2018-10-05T05:06:56.407Z,101158.20
2018-10-05T05:09:23.812Z,101162.69
2018-10-05T05:11:51.307Z,101169.78
2018-10-05T05:14:18.727Z,101162.98
2018-10-05T05:16:46.135Z,101161.30
2018-10-05T05:19:13.609Z,101164.85
2018-10-05T05:21:41.014Z,101159.37
2018-10-05T05:24:08.439Z,101158.34
2018-10-05T05:26:35.856Z,101157.41
2018-10-05T05:29:03.288Z,101154.12
2018-10-05T05:31:30.691Z,101159.83
2018-10-05T05:33:58.192Z,101158.14
2018-10-05T05:36:25.545Z,101158.63
2018-10-05T05:38:52.959Z,101156.84
2018-10-05T05:41:20.387Z,101156.36
2018-10-05T05:43:47.879Z,101149.84
2018-10-05T05:46:15.331Z,101149.52
2018-10-05T05:48:42.754Z,101151.05
2018-10-05T05:51:10.163Z,101165.08
2018-10-05T05:53:37.676Z,101166.86
2018-10-05T05:56:05.091Z,101165.08
2018-10-05T05:58:32.519Z,101166.86
2018-10-05T06:01:04.167Z,101169.89
2018-10-05T06:03:31.631Z,101174.41
2018-10-05T06:05:59.093Z,101174.34
2018-10-05T06:08:26.555Z,101169.73
2018-10-05T06:10:53.966Z,101166.33
2018-10-05T06:13:21.391Z,101168.26
2018-10-05T06:15:48.854Z,101166.72
2018-10-05T06:18:16.223Z,101174.19
2018-10-05T06:20:43.644Z,101159.56
2018-10-05T06:23:11.104Z,101161.63
2018-10-05T06:25:38.534Z,101165.25
2018-10-05T06:28:06.010Z,101166.70
2018-10-05T06:30:33.489Z,101164.88
2018-10-05T06:33:00.882Z,101173.59
2018-10-05T06:35:28.272Z,101172.58
2018-10-05T06:37:55.749Z,101167.83
2018-10-05T06:40:23.099Z,101168.50
2018-10-05T06:42:50.507Z,101173.84
2018-10-05T06:45:17.926Z,101173.00
2018-10-05T06:47:45.350Z,101170.58
2018-10-05T06:50:12.768Z,101174.09
2018-10-05T06:52:40.217Z,101170.94
2018-10-05T06:55:07.638Z,101176.03
2018-10-05T06:57:35.063Z,101174.45
2018-10-05T07:00:02.472Z,101175.39
2018-10-05T07:02:29.903Z,101176.91
2018-10-05T07:04:57.335Z,101180.13
2018-10-05T07:07:24.808Z,101177.72
2018-10-05T07:09:52.175Z,101183.42
2018-10-05T07:12:19.592Z,101187.52
2018-10-05T07:14:47.187Z,101181.94
2018-10-05T07:17:14.643Z,101184.52
2018-10-05T07:19:42.097Z,101178.53
2018-10-05T07:22:09.503Z,101172.89
2018-10-05T07:24:36.936Z,101172.47
2018-10-05T07:27:04.358Z,101174.58
2018-10-05T07:29:31.791Z,101173.27
2018-10-05T07:31:59.288Z,101167.86
2018-10-05T07:34:26.710Z,101171.78
2018-10-05T07:36:54.165Z,101163.79
2018-10-05T07:39:21.550Z,101160.76
2018-10-05T07:41:49.023Z,101170.82
2018-10-05T07:44:16.474Z,101173.17
2018-10-05T07:46:43.925Z,101169.86
2018-10-05T07:49:11.347Z,101172.48
2018-10-05T07:51:38.828Z,101167.61
2018-10-05T07:54:06.194Z,101172.30
2018-10-05T07:56:33.603Z,101162.08
2018-10-05T07:59:01.129Z,101164.41
2018-10-05T08:01:28.556Z,101165.69
2018-10-05T08:03:55.992Z,101164.16
2018-10-05T08:06:23.415Z,101160.98
2018-10-05T08:08:50.855Z,101158.13
2018-10-05T08:11:18.307Z,101155.91
2018-10-05T08:13:45.763Z,101160.80
2018-10-05T08:16:13.178Z,101158.65
2018-10-05T08:18:40.603Z,101158.59
2018-10-05T08:21:08.066Z,101158.04
2018-10-05T08:23:35.535Z,101157.84
2018-10-05T08:26:02.959Z,101151.38
2018-10-05T08:28:30.380Z,101153.58
2018-10-05T08:30:57.811Z,101146.88
2018-10-05T08:33:25.267Z,101134.93
2018-10-05T08:35:52.679Z,101145.78
2018-10-05T08:38:20.094Z,101136.48
2018-10-05T08:40:47.599Z,101136.27
2018-10-05T08:43:15.017Z,101134.96
2018-10-05T08:45:42.447Z,101130.97
2018-10-05T08:48:09.858Z,101126.38
2018-10-05T08:50:37.291Z,101119.14
2018-10-05T08:53:04.723Z,101121.27
2018-10-05T08:55:32.234Z,101112.30
2018-10-05T08:57:59.646Z,101114.79
2018-10-05T09:00:27.195Z,101119.47
2018-10-05T09:02:54.527Z,101114.50
2018-10-05T09:05:21.947Z,101110.89
2018-10-05T09:07:49.367Z,101104.00
2018-10-05T09:10:16.784Z,101104.02
2018-10-05T09:12:44.208Z,101098.00
2018-10-05T09:15:11.627Z,101097.30
2018-10-05T09:17:39.114Z,101082.94
2018-10-05T09:20:06.476Z,101089.70
2018-10-05T09:22:33.964Z,101077.07
2018-10-05T09:25:01.403Z,101075.34
2018-10-05T09:27:28.823Z,101067.66
2018-10-05T09:29:56.222Z,101058.59
2018-10-05T09:32:23.635Z,101060.23
2018-10-05T09:34:51.063Z,101045.70
2018-10-05T09:37:18.627Z,101039.80
2018-10-05T09:39:46.026Z,101040.13
2018-10-05T09:42:13.451Z,101042.81
2018-10-05T09:44:40.887Z,101032.78
2018-10-05T09:47:08.299Z,101031.67
2018-10-05T09:49:35.727Z,101027.33
2018-10-05T09:52:03.170Z,101022.45
2018-10-05T09:54:30.551Z,101021.57
2018-10-05T09:56:57.962Z,101013.08
2018-10-05T09:59:25.415Z,101014.46
2018-10-05T10:01:57.024Z,101002.23
2018-10-05T10:04:24.436Z,101001.56
2018-10-05T10:06:51.851Z,100994.77
2018-10-05T10:09:19.270Z,100998.18
2018-10-05T10:11:46.686Z,100992.98
2018-10-05T10:14:14.227Z,100984.38
2018-10-05T10:16:41.642Z,100975.25
2018-10-05T10:19:09.050Z,100968.97
2018-10-05T10:21:36.473Z,100963.72
2018-10-05T10:24:03.891Z,100967.80
2018-10-05T10:26:31.336Z,100951.53
2018-10-05T10:28:58.844Z,100951.50
2018-10-05T10:31:26.261Z,100945.34
2018-10-05T10:33:53.710Z,100950.24
2018-10-05T10:36:21.151Z,100950.70
2018-10-05T10:38:49.007Z,100943.20
2018-10-05T10:41:16.435Z,100932.91
2018-10-05T10:43:43.843Z,100927.27
2018-10-05T10:46:11.267Z,100929.50
2018-10-05T10:48:38.688Z,100923.94
2018-10-05T10:51:06.100Z,100922.20
2018-10-05T10:53:33.576Z,100916.08
2018-10-05T10:56:00.999Z,100909.13
2018-10-05T10:58:28.419Z,100906.56
2018-10-05T11:00:55.848Z,100901.19
2018-10-05T11:03:23.267Z,100900.34
2018-10-05T11:05:50.687Z,100894.63
2018-10-05T11:08:18.095Z,100891.25
2018-10-05T11:10:45.518Z,100889.05
2018-10-05T11:13:12.936Z,100883.73
2018-10-05T11:15:40.360Z,100884.59
2018-10-05T11:18:07.775Z,100875.42
2018-10-05T11:20:35.208Z,100873.70
2018-10-05T11:23:02.721Z,100860.58
2018-10-05T11:25:30.103Z,100861.95
2018-10-05T11:27:57.519Z,100854.11
2018-10-05T11:30:25.036Z,100861.55
2018-10-05T11:32:52.455Z,100845.72
2018-10-05T11:35:19.875Z,100848.00
2018-10-05T11:37:47.305Z,100835.80
2018-10-05T11:40:14.764Z,100826.17
2018-10-05T11:42:42.272Z,100831.91
2018-10-05T11:45:09.695Z,100822.26
2018-10-05T11:47:37.114Z,100813.95
2018-10-05T11:50:04.596Z,100809.55
2018-10-05T11:52:32.112Z,100812.19
2018-10-05T11:54:59.415Z,100810.42
2018-10-05T11:57:26.861Z,100806.08
2018-10-05T11:59:54.347Z,100801.27
2018-10-05T12:02:21.688Z,100796.87
2018-10-05T12:04:49.100Z,100796.42
2018-10-05T12:07:16.523Z,100787.23
2018-10-05T12:09:43.943Z,100792.05
2018-10-05T12:12:11.415Z,100778.93
2018-10-05T12:14:38.839Z,100790.30
2018-10-05T12:17:06.331Z,100784.62
2018-10-05T12:19:33.771Z,100781.12
2018-10-05T12:22:01.203Z,100782.41
2018-10-05T12:24:28.627Z,100784.61
2018-10-05T12:26:56.045Z,100777.19
2018-10-05T12:29:23.467Z,100774.55
2018-10-05T12:31:50.890Z,100771.48
2018-10-05T12:34:18.299Z,100770.18
2018-10-05T12:36:45.716Z,100772.37
2018-10-05T12:39:13.147Z,100760.55
2018-10-05T12:41:40.555Z,100761.41
2018-10-05T12:44:08.419Z,100758.78
2018-10-05T12:46:36.194Z,100750.89
2018-10-05T12:49:03.635Z,100753.13
2018-10-05T12:51:31.082Z,100743.92
2018-10-05T12:53:58.496Z,100750.90
2018-10-05T12:56:25.904Z,100740.41
2018-10-05T12:58:53.331Z,100733.38
2018-10-05T13:01:21.030Z,100735.14
2018-10-05T13:03:48.480Z,100729.43
2018-10-05T13:06:15.955Z,100736.45
2018-10-05T13:08:43.376Z,100727.28
2018-10-05T13:11:10.796Z,100725.06
2018-10-05T13:13:38.207Z,100715.00
2018-10-05T13:16:05.642Z,100723.75
2018-10-05T13:18:33.065Z,100722.86
2018-10-05T13:21:00.487Z,100720.24
2018-10-05T13:23:27.913Z,100715.89
2018-10-05T13:25:55.334Z,100708.89
2018-10-05T13:28:22.837Z,100704.92
2018-10-05T13:30:50.194Z,100700.12
2018-10-05T13:33:17.595Z,100697.48
2018-10-05T13:35:45.015Z,100695.31
2018-10-05T13:38:12.442Z,100687.00
2018-10-05T13:40:39.868Z,100687.02
2018-10-05T13:43:07.290Z,100690.50
2018-10-05T13:45:34.722Z,100691.40
2018-10-05T13:48:02.143Z,100694.91
2018-10-05T13:50:29.557Z,100688.34
2018-10-05T13:52:56.968Z,100690.52
2018-10-05T13:55:24.379Z,100684.41
2018-10-05T13:57:51.798Z,100685.30
2018-10-05T14:00:19.254Z,100682.22
2018-10-05T14:02:46.747Z,100677.85
2018-10-05T14:05:14.158Z,100686.62
2018-10-05T14:07:41.570Z,100680.05
2018-10-05T14:10:08.987Z,100676.11
2018-10-05T14:12:36.396Z,100680.50
2018-10-05T14:15:03.832Z,100676.58
2018-10-05T14:17:31.259Z,100676.56
2018-10-05T14:19:58.693Z,100673.95
2018-10-05T14:22:26.148Z,100671.30
2018-10-05T14:24:53.559Z,100673.06
2018-10-05T14:27:20.979Z,100673.06
2018-10-05T14:29:48.525Z,100672.19
2018-10-05T14:32:15.944Z,100674.80
2018-10-05T14:34:43.357Z,100685.31
2018-10-05T14:37:10.762Z,100673.50
2018-10-05T14:39:38.187Z,100669.13
2018-10-05T14:42:05.605Z,100667.82
2018-10-05T14:44:33.027Z,100660.33
2018-10-05T14:47:00.443Z,100666.91
2018-10-05T14:49:27.944Z,100661.64
2018-10-05T14:51:55.297Z,100659.47
2018-10-05T14:54:22.707Z,100666.90
2018-10-05T14:56:50.185Z,100654.22
2018-10-05T14:59:17.811Z,100660.32
2018-10-05T15:01:45.232Z,100662.96
2018-10-05T15:04:12.639Z,100657.70
2018-10-05T15:06:40.082Z,100656.81
2018-10-05T15:09:07.539Z,100646.33
2018-10-05T15:11:35.067Z,100650.25
2018-10-05T15:14:02.626Z,100651.58
2018-10-05T15:16:30.040Z,100656.38
2018-10-05T15:18:57.455Z,100648.52
2018-10-05T15:21:24.931Z,100645.94
2018-10-05T15:23:52.294Z,100636.76
2018-10-05T15:26:19.747Z,100638.95
2018-10-05T15:28:47.196Z,100635.45
2018-10-05T15:31:14.623Z,100633.72
2018-10-05T15:33:42.047Z,100638.08
2018-10-05T15:36:09.470Z,100635.03
2018-10-05T15:38:36.895Z,100632.41
2018-10-05T15:41:04.315Z,100628.47
2018-10-05T15:43:31.911Z,100626.70
2018-10-05T15:45:59.396Z,100626.27
2018-10-05T15:48:26.823Z,100630.60
2018-10-05T15:50:54.252Z,100623.17
2018-10-05T15:53:21.775Z,100623.17
2018-10-05T15:55:49.178Z,100623.16
2018-10-05T15:58:16.699Z,100625.34
2018-10-05T16:00:44.123Z,100625.77
2018-10-05T16:03:11.555Z,100624.88
2018-10-05T16:05:39.077Z,100619.16
2018-10-05T16:08:06.378Z,100616.48
2018-10-05T16:10:33.791Z,100616.02
2018-10-05T16:13:01.207Z,100611.62
2018-10-05T16:15:28.638Z,100613.81
2018-10-05T16:17:56.055Z,100612.47
2018-10-05T16:20:23.467Z,100612.74
2018-10-05T16:22:50.884Z,100593.91
2018-10-05T16:25:18.311Z,100596.44
2018-10-05T16:27:45.723Z,100592.80
2018-10-05T16:30:13.147Z,100595.70
2018-10-05T16:32:40.565Z,100597.00
2018-10-05T16:35:07.982Z,100602.21
2018-10-05T16:37:35.410Z,100597.78
2018-10-05T16:40:02.816Z,100592.48
2018-10-05T16:42:30.320Z,100596.83
2018-10-05T16:44:57.746Z,100591.55
2018-10-05T16:47:25.166Z,100587.16
2018-10-05T16:49:52.597Z,100587.05
2018-10-05T16:52:20.020Z,100592.30
2018-10-05T16:54:47.501Z,100594.89
2018-10-05T16:57:14.975Z,100593.89
2018-10-05T16:59:42.343Z,100599.02
2018-10-05T17:02:09.782Z,100589.81
2018-10-05T17:04:37.204Z,100587.64
2018-10-05T17:07:04.599Z,100592.41
2018-10-05T17:09:32.010Z,100587.66
2018-10-05T17:11:59.427Z,100591.84
2018-10-05T17:14:26.845Z,100593.86
2018-10-05T17:16:54.259Z,100586.88
2018-10-05T17:19:21.677Z,100595.88
2018-10-05T17:21:49.095Z,100591.80
2018-10-05T17:24:16.583Z,100591.77
2018-10-05T17:26:43.998Z,100584.28
2018-10-05T17:29:11.442Z,100586.86
2018-10-05T17:31:38.851Z,100580.72
2018-10-05T17:34:06.308Z,100586.52
2018-10-05T17:36:33.716Z,100588.18
2018-10-05T17:39:01.164Z,100588.95
2018-10-05T17:41:28.575Z,100581.13
2018-10-05T17:43:55.985Z,100578.03
2018-10-05T17:46:23.403Z,100580.19
2018-10-05T17:48:50.880Z,100576.59
2018-10-05T17:51:18.310Z,100576.36
2018-10-05T17:53:45.731Z,100571.38
2018-10-05T17:56:13.216Z,100562.87
2018-10-05T17:58:40.584Z,100557.59
2018-10-05T18:01:08.207Z,100557.02
2018-10-05T18:03:35.631Z,100556.63
2018-10-05T18:06:03.063Z,100559.43
2018-10-05T18:08:30.599Z,100561.95
2018-10-05T18:10:58.024Z,100561.53
2018-10-05T18:13:25.448Z,100565.78
2018-10-05T18:15:52.863Z,100565.65
2018-10-05T18:18:20.343Z,100556.83
2018-10-05T18:20:47.767Z,100566.75
2018-10-05T18:23:15.187Z,100563.68
2018-10-05T18:25:42.599Z,100566.37
2018-10-05T18:28:10.018Z,100550.23
2018-10-05T18:30:37.435Z,100555.08
2018-10-05T18:33:04.857Z,100551.17
2018-10-05T18:35:32.343Z,100548.09
2018-10-05T18:37:59.796Z,100541.59
2018-10-05T18:40:27.224Z,100542.09
2018-10-05T18:42:54.639Z,100546.63
2018-10-05T18:45:22.047Z,100550.70
2018-10-05T18:47:49.475Z,100550.41
2018-10-05T18:50:16.954Z,100548.39
2018-10-05T18:52:44.377Z,100538.81
2018-10-05T18:55:11.791Z,100536.13
2018-10-05T18:57:39.215Z,100539.23
2018-10-05T19:00:06.678Z,100542.52
2018-10-05T19:02:34.057Z,100538.02
2018-10-05T19:05:01.479Z,100532.64
2018-10-05T19:07:28.899Z,100537.72
2018-10-05T19:09:56.336Z,100530.79
2018-10-05T19:12:23.763Z,100530.63
2018-10-05T19:14:51.196Z,100527.10
2018-10-05T19:17:18.603Z,100516.34
2018-10-05T19:19:46.031Z,100525.04
2018-10-05T19:22:13.528Z,100523.16
2018-10-05T19:24:40.979Z,100522.40
2018-10-05T19:27:08.392Z,100517.62
2018-10-05T19:29:35.832Z,100507.86
2018-10-05T19:32:03.249Z,100515.39
2018-10-05T19:34:30.708Z,100509.45
2018-10-05T19:36:58.127Z,100502.75
2018-10-05T19:39:25.538Z,100502.75
2018-10-05T19:41:53.032Z,100498.25
2018-10-05T19:44:20.411Z,100497.24
2018-10-05T19:46:47.827Z,100493.27
2018-10-05T19:49:15.343Z,100493.78
2018-10-05T19:51:42.763Z,100494.96
2018-10-05T19:54:10.180Z,100489.81
2018-10-05T19:56:37.595Z,100485.21
2018-10-05T19:59:05.014Z,100482.97
2018-10-05T20:01:32.427Z,100483.03
2018-10-05T20:03:59.904Z,100475.53
2018-10-05T20:06:27.327Z,100469.34
2018-10-05T20:08:54.814Z,100462.83
2018-10-05T20:11:22.238Z,100459.08
2018-10-05T20:13:49.667Z,100454.39
2018-10-05T20:16:17.079Z,100449.61
2018-10-05T20:18:44.539Z,100449.34
2018-10-05T20:21:12.015Z,100448.53
2018-10-05T20:23:39.619Z,100450.44
2018-10-05T20:26:07.183Z,100448.25
2018-10-05T20:28:34.683Z,100444.06
2018-10-05T20:31:02.105Z,100441.56
2018-10-05T20:33:29.717Z,100441.42
2018-10-05T20:35:57.220Z,100438.39
2018-10-05T20:38:24.550Z,100437.94
2018-10-05T20:40:51.939Z,100440.51
2018-10-05T20:43:19.415Z,100448.95
2018-10-05T20:45:46.840Z,100441.70
2018-10-05T20:48:14.251Z,100438.71
2018-10-05T20:50:41.667Z,100439.06
2018-10-05T20:53:09.092Z,100437.30
2018-10-05T20:55:36.519Z,100429.03
2018-10-05T20:58:03.939Z,100432.59
2018-10-05T21:00:31.371Z,100436.91
2018-10-05T21:02:58.788Z,100436.03
2018-10-05T21:05:26.198Z,100435.86
2018-10-05T21:07:53.611Z,100438.50
2018-10-05T21:10:21.027Z,100435.17
2018-10-05T21:12:48.443Z,100428.62
2018-10-05T21:15:15.973Z,100430.39
2018-10-05T21:17:43.291Z,100431.34
2018-10-05T21:20:10.724Z,100434.06
2018-10-05T21:22:38.139Z,100425.33
2018-10-05T21:25:05.565Z,100426.98
2018-10-05T21:27:33.043Z,100420.93
2018-10-05T21:30:00.463Z,100421.27
2018-10-05T21:32:27.876Z,100413.65
2018-10-05T21:34:55.306Z,100407.21
2018-10-05T21:37:22.716Z,100412.70
2018-10-05T21:39:50.148Z,100407.10
2018-10-05T21:42:17.564Z,100412.34
2018-10-05T21:44:44.990Z,100413.92
2018-10-05T21:47:12.407Z,100404.04
2018-10-05T21:49:39.847Z,100400.17
2018-10-05T21:52:07.275Z,100396.27
2018-10-05T21:54:34.871Z,100398.91
2018-10-05T21:57:02.299Z,100395.42
2018-10-05T21:59:29.707Z,100395.38
2018-10-05T22:01:57.130Z,100393.17
2018-10-05T22:04:24.574Z,100387.95
2018-10-05T22:06:51.990Z,100382.68
2018-10-05T22:09:19.403Z,100382.22
2018-10-05T22:11:46.871Z,100371.20
2018-10-05T22:14:14.286Z,100380.70
2018-10-05T22:16:41.702Z,100375.07
2018-10-05T22:19:09.115Z,100373.80
2018-10-05T22:21:36.541Z,100362.48
2018-10-05T22:24:04.016Z,100366.84
2018-10-05T22:26:31.427Z,100369.33
2018-10-05T22:28:58.864Z,100378.40
2018-10-05T22:31:26.331Z,100376.72
2018-10-05T22:33:53.742Z,100375.38
2018-10-05T22:36:21.173Z,100377.03
2018-10-05T22:38:48.607Z,100367.84
2018-10-05T22:41:16.055Z,100367.00
2018-10-05T22:43:43.474Z,100363.48
2018-10-05T22:46:10.889Z,100353.72
2018-10-05T22:48:38.296Z,100359.22
2018-10-05T22:51:05.787Z,100352.03
2018-10-05T22:53:33.197Z,100350.23
2018-10-05T22:56:00.623Z,100354.94
2018-10-05T22:58:28.084Z,100360.98
2018-10-05T23:00:55.459Z,100355.28
2018-10-05T23:03:22.874Z,100355.28
2018-10-05T23:05:50.323Z,100356.66
2018-10-05T23:08:17.739Z,100359.56
2018-10-05T23:10:45.168Z,100358.30
2018-10-05T23:13:12.584Z,100356.58
2018-10-05T23:15:39.995Z,100352.09
2018-10-05T23:18:07.502Z,100356.88
2018-10-05T23:20:34.914Z,100355.87
2018-10-05T23:23:02.348Z,100347.69
2018-10-05T23:25:29.783Z,100349.45
2018-10-05T23:27:57.226Z,100351.52
2018-10-05T23:30:24.657Z,100352.44
2018-10-05T23:32:52.099Z,100356.71
2018-10-05T23:35:19.607Z,100352.30
2018-10-05T23:37:47.067Z,100350.92
2018-10-05T23:40:14.486Z,100358.97
2018-10-05T23:42:41.899Z,100350.00
2018-10-05T23:45:09.319Z,100338.16
2018-10-05T23:47:36.747Z,100346.39
2018-10-05T23:50:04.160Z,100342.06
2018-10-05T23:52:31.611Z,100345.50
2018-10-05T23:54:59.024Z,100340.64
2018-10-05T23:57:26.452Z,100344.12
2018-10-05T23:59:53.875Z,100345.00
